createdAt,value
2023-02-26T00:01:14.556Z,1.40
2023-02-26T00:04:23.932Z,1.87
2023-02-26T00:07:07.411Z,1.83
2023-02-26T00:53:04.499Z,1.90
2023-02-26T00:55:50.699Z,2.20
2023-02-26T00:59:13.705Z,2.33
2023-02-26T01:52:32.120Z,2.03
2023-02-26T01:55:55.561Z,2.50
2023-02-26T01:58:31.760Z,2.20
2023-02-26T02:00:58.648Z,1.67
2023-02-26T02:03:31.602Z,1.93
2023-02-26T02:06:28.853Z,2.47
2023-02-26T02:08:57.479Z,1.93
2023-02-26T02:11:27.163Z,2.13
2023-02-26T02:14:27.629Z,2.67
2023-02-26T02:17:21.300Z,2.40
2023-02-26T02:20:11.992Z,2.37
2023-02-26T02:26:24.833Z,2.47
2023-02-26T02:29:50.265Z,1.87
2023-02-26T02:32:33.785Z,2.20
2023-02-26T02:35:18.344Z,2.10
2023-02-26T02:37:58.710Z,2.20
2023-02-26T02:40:35.342Z,2.13
2023-02-26T02:43:07.497Z,1.90
2023-02-26T02:45:54.205Z,2.20
2023-02-26T02:48:34.325Z,2.43
2023-02-26T02:51:37.856Z,2.57
2023-02-26T02:54:26.698Z,2.03
2023-02-26T02:57:05.798Z,1.70
2023-02-26T02:59:57.056Z,2.17
2023-02-26T03:02:32.697Z,1.70
2023-02-26T03:05:00.000Z,2.10
2023-02-26T03:07:27.148Z,1.90
2023-02-26T03:09:55.127Z,1.77
2023-02-26T03:12:22.126Z,2.07
2023-02-26T03:14:49.442Z,2.40
2023-02-26T03:17:47.697Z,2.00
2023-02-26T03:20:38.457Z,1.80
2023-02-26T03:23:26.010Z,1.90
2023-02-26T03:26:11.575Z,2.40
2023-02-26T03:28:45.537Z,1.97
2023-02-26T03:31:20.988Z,2.07
2023-02-26T03:34:21.134Z,2.43
2023-02-26T03:37:10.608Z,2.40
2023-02-26T03:40:00.891Z,1.80
2023-02-26T03:43:01.687Z,2.47
2023-02-26T03:45:50.860Z,2.53
2023-02-26T04:10:15.746Z,2.20
2023-02-26T04:12:43.430Z,2.53
2023-02-26T04:15:13.277Z,1.83
2023-02-26T04:17:46.064Z,2.47
2023-02-26T04:20:33.357Z,2.00
2023-02-26T04:25:55.232Z,2.40
2023-02-26T04:28:31.805Z,2.43
2023-02-26T04:30:58.888Z,1.90
2023-02-26T04:33:29.782Z,1.70
2023-02-26T04:35:56.975Z,1.90
2023-02-26T04:38:24.543Z,2.00
2023-02-26T04:40:51.646Z,1.90
2023-02-26T04:43:19.318Z,1.63
2023-02-26T04:45:48.009Z,2.00
2023-02-26T04:48:16.073Z,1.77
2023-02-26T04:50:44.775Z,2.20
2023-02-26T04:53:13.136Z,1.97
2023-02-26T04:55:41.794Z,2.27
2023-02-26T04:58:09.147Z,1.77
2023-02-26T05:01:09.241Z,1.80
2023-02-26T05:03:36.259Z,2.20
2023-02-26T05:06:03.251Z,2.40
2023-02-26T05:08:30.319Z,2.73
2023-02-26T05:10:57.586Z,2.33
2023-02-26T05:13:26.836Z,1.70
2023-02-26T05:15:55.307Z,2.47
2023-02-26T05:18:25.411Z,2.27
2023-02-26T05:20:55.878Z,1.97
2023-02-26T05:23:24.432Z,1.70
2023-02-26T05:25:51.589Z,2.10
2023-02-26T05:28:18.677Z,2.00
2023-02-26T05:30:45.709Z,2.33
2023-02-26T05:33:12.632Z,1.60
2023-02-26T05:35:39.648Z,1.50
2023-02-26T05:38:06.814Z,1.97
2023-02-26T05:40:37.025Z,1.80
2023-02-26T05:43:06.271Z,2.30
2023-02-26T05:45:33.281Z,2.13
2023-02-26T05:48:00.528Z,1.73
2023-02-26T05:50:27.582Z,2.00
2023-02-26T05:52:54.503Z,1.50
2023-02-26T05:55:21.444Z,1.80
2023-02-26T05:57:48.499Z,1.80
2023-02-26T06:00:15.995Z,1.83
2023-02-26T06:02:43.206Z,2.03
2023-02-26T06:05:10.618Z,1.90
2023-02-26T06:07:37.524Z,1.83
2023-02-26T06:10:06.602Z,1.83
2023-02-26T06:12:33.344Z,1.77
2023-02-26T06:15:00.192Z,2.33
2023-02-26T06:17:27.603Z,2.50
2023-02-26T06:19:54.339Z,1.90
2023-02-26T06:22:21.086Z,2.17
2023-02-26T06:24:47.975Z,1.53
2023-02-26T06:27:14.787Z,2.13
2023-02-26T06:29:41.601Z,2.00
2023-02-26T06:32:08.874Z,1.80
2023-02-26T06:34:35.720Z,2.03
2023-02-26T06:37:02.582Z,2.47
2023-02-26T06:39:29.331Z,2.30
2023-02-26T06:41:56.158Z,2.60
2023-02-26T06:44:22.903Z,1.97
2023-02-26T06:46:49.746Z,2.03
2023-02-26T06:49:16.733Z,1.90
2023-02-26T06:51:43.512Z,2.17
2023-02-26T06:54:10.263Z,2.20
2023-02-26T06:56:37.054Z,1.67
2023-02-26T06:59:03.950Z,1.90
2023-02-26T07:01:32.079Z,2.20
2023-02-26T07:03:58.988Z,2.30
2023-02-26T07:06:38.717Z,2.53
2023-02-26T07:09:05.610Z,2.07
2023-02-26T07:11:32.425Z,1.90
2023-02-26T07:13:59.223Z,2.23
2023-02-26T07:16:26.295Z,2.43
2023-02-26T07:18:53.257Z,2.13
2023-02-26T07:21:20.242Z,2.33
2023-02-26T07:23:47.059Z,2.20
2023-02-26T07:26:13.889Z,2.13
2023-02-26T07:28:40.681Z,2.07
2023-02-26T07:31:07.482Z,1.90
2023-02-26T07:33:35.108Z,1.60
2023-02-26T07:36:02.227Z,1.40
2023-02-26T07:38:28.997Z,1.77
2023-02-26T07:40:56.794Z,1.80
2023-02-26T07:43:25.014Z,2.03
2023-02-26T07:45:52.962Z,1.67
2023-02-26T07:48:20.780Z,1.80
2023-02-26T07:50:47.659Z,3.00
2023-02-26T07:53:14.755Z,2.17
2023-02-26T07:55:41.633Z,1.93
2023-02-26T07:58:08.500Z,1.50
2023-02-26T08:00:35.365Z,1.60
2023-02-26T08:03:02.306Z,2.03
2023-02-26T08:05:30.609Z,1.80
2023-02-26T08:07:57.626Z,2.10
2023-02-26T08:10:24.814Z,1.87
2023-02-26T08:12:51.709Z,1.90
2023-02-26T08:15:18.709Z,2.00
2023-02-26T08:17:45.559Z,1.73
2023-02-26T08:20:14.813Z,1.90
2023-02-26T08:22:42.099Z,2.00
2023-02-26T08:25:09.352Z,1.73
2023-02-26T08:27:39.921Z,1.83
2023-02-26T08:30:10.102Z,1.50
2023-02-26T08:32:39.889Z,2.20
2023-02-26T08:35:07.113Z,1.60
2023-02-26T08:37:34.018Z,1.63
2023-02-26T08:40:00.885Z,2.00
2023-02-26T08:42:27.681Z,2.07
2023-02-26T08:44:54.471Z,1.90
2023-02-26T08:47:28.530Z,1.73
2023-02-26T08:49:56.075Z,2.13
2023-02-26T08:52:23.244Z,2.00
2023-02-26T08:54:50.495Z,1.50
2023-02-26T08:57:17.738Z,2.13
2023-02-26T08:59:44.634Z,1.70
2023-02-26T09:02:13.160Z,2.40
2023-02-26T09:04:40.066Z,1.67
2023-02-26T09:07:07.302Z,1.77
2023-02-26T09:09:34.218Z,2.23
2023-02-26T09:12:01.064Z,1.90
2023-02-26T09:14:28.113Z,1.97
2023-02-26T09:16:55.032Z,1.67
2023-02-26T09:19:21.996Z,1.83
2023-02-26T09:21:48.944Z,1.60
2023-02-26T09:24:16.068Z,1.60
2023-02-26T09:26:43.321Z,1.60
2023-02-26T09:29:11.470Z,1.67
2023-02-26T09:31:38.403Z,1.53
2023-02-26T09:34:11.592Z,2.00
2023-02-26T09:36:49.223Z,1.40
2023-02-26T09:39:25.505Z,1.50
2023-02-26T09:42:30.159Z,1.73
2023-02-26T09:45:03.537Z,1.60
2023-02-26T09:47:41.819Z,1.30
2023-02-26T09:53:31.577Z,1.60
2023-02-26T09:56:21.767Z,2.60
2023-02-26T09:58:50.387Z,2.97
2023-02-26T10:01:46.415Z,2.00
2023-02-26T10:05:00.474Z,1.90
2023-02-26T10:08:23.789Z,1.50
2023-02-26T10:11:10.459Z,1.70
2023-02-26T10:13:56.543Z,1.30
2023-02-26T10:16:31.464Z,1.30
2023-02-26T10:19:18.110Z,1.67
2023-02-26T10:21:56.317Z,2.50
2023-02-26T10:24:35.714Z,2.50
2023-02-26T10:27:13.193Z,2.30
2023-02-26T10:30:11.434Z,2.47
2023-02-26T10:32:59.688Z,3.13
2023-02-26T10:35:36.572Z,2.07
2023-02-26T10:38:13.802Z,2.07
2023-02-26T10:40:50.819Z,2.33
2023-02-26T10:43:37.694Z,2.03
2023-02-26T10:46:37.958Z,2.13
2023-02-26T10:49:19.689Z,1.50
2023-02-26T10:51:47.199Z,2.00
2023-02-26T10:54:24.312Z,1.30
2023-02-26T10:56:51.073Z,1.80
2023-02-26T10:59:17.902Z,1.30
2023-02-26T11:01:45.917Z,1.93
2023-02-26T11:04:19.792Z,2.53
2023-02-26T11:06:56.253Z,2.80
2023-02-26T11:09:39.383Z,3.10
2023-02-26T11:12:12.798Z,1.77
2023-02-26T11:14:41.880Z,2.13
2023-02-26T11:17:22.350Z,1.70
2023-02-26T11:20:01.020Z,1.90
2023-02-26T11:22:33.218Z,1.77
2023-02-26T11:25:00.669Z,1.33
2023-02-26T11:27:35.030Z,1.13
2023-02-26T11:30:16.700Z,1.47
2023-02-26T11:32:45.482Z,1.30
2023-02-26T11:35:16.901Z,1.20
2023-02-26T11:37:52.746Z,1.33
2023-02-26T11:40:32.196Z,1.50
2023-02-26T11:43:06.737Z,1.20
2023-02-26T11:45:39.251Z,1.20
2023-02-26T11:48:13.356Z,1.33
2023-02-26T11:50:48.464Z,1.30
2023-02-26T11:53:50.934Z,2.13
2023-02-26T11:56:43.457Z,6.63
2023-02-26T11:59:21.823Z,2.40
2023-02-26T12:01:51.006Z,1.60
2023-02-26T12:04:27.698Z,1.30
2023-02-26T12:06:56.801Z,1.20
2023-02-26T12:09:25.850Z,1.17
2023-02-26T12:12:43.643Z,1.10
2023-02-26T12:16:02.197Z,1.20
2023-02-26T12:18:51.265Z,1.20
2023-02-26T12:22:02.335Z,1.20
2023-02-26T12:25:14.597Z,1.27
2023-02-26T12:28:15.335Z,1.50
2023-02-26T12:31:19.244Z,1.23
2023-02-26T12:34:03.993Z,1.00
2023-02-26T12:37:10.292Z,1.30
2023-02-26T12:40:07.061Z,1.20
2023-02-26T12:42:59.681Z,1.20
2023-02-26T12:46:01.892Z,1.20
2023-02-26T12:49:04.187Z,1.30
2023-02-26T12:52:00.702Z,1.20
2023-02-26T12:55:12.818Z,1.17
2023-02-26T12:58:11.719Z,1.20
2023-02-26T13:00:55.688Z,1.20
2023-02-26T13:03:44.497Z,1.10
2023-02-26T13:06:45.023Z,1.20
2023-02-26T13:09:20.312Z,1.23
2023-02-26T13:12:07.661Z,1.20
2023-02-26T13:15:18.805Z,1.27
2023-02-26T13:18:42.083Z,1.10
2023-02-26T13:21:18.106Z,1.10
2023-02-26T13:24:05.130Z,1.00
2023-02-26T13:26:34.863Z,1.20
2023-02-26T13:29:15.822Z,1.20
2023-02-26T13:32:18.438Z,1.30
2023-02-26T13:35:01.070Z,1.17
2023-02-26T13:37:38.014Z,1.33
2023-02-26T13:40:40.019Z,1.07
2023-02-26T13:43:14.589Z,1.20
2023-02-26T13:46:25.069Z,1.10
2023-02-26T13:49:48.961Z,1.10
2023-02-26T13:52:28.914Z,1.07
2023-02-26T13:54:59.461Z,1.23
2023-02-26T13:57:47.582Z,1.53
2023-02-26T14:00:29.426Z,0.93
2023-02-26T14:03:11.586Z,1.20
2023-02-26T14:06:06.294Z,1.23
2023-02-26T14:09:04.719Z,0.90
2023-02-26T14:11:45.954Z,1.00
2023-02-26T14:14:25.139Z,1.30
2023-02-26T14:17:09.729Z,1.00
2023-02-26T14:19:53.919Z,1.00
2023-02-26T14:22:34.840Z,0.90
2023-02-26T14:25:38.310Z,1.37
2023-02-26T14:28:33.403Z,1.10
2023-02-26T14:31:22.203Z,1.10
2023-02-26T14:34:27.064Z,1.20
2023-02-26T14:36:59.513Z,0.90
2023-02-26T14:39:40.023Z,1.10
2023-02-26T14:42:38.348Z,1.03
2023-02-26T14:45:39.705Z,0.90
2023-02-26T14:48:14.177Z,1.07
2023-02-26T14:51:09.666Z,1.20
2023-02-26T14:54:07.098Z,1.00
2023-02-26T14:57:08.927Z,1.00
2023-02-26T15:00:12.312Z,0.83
2023-02-26T15:03:15.602Z,0.90
2023-02-26T15:06:05.637Z,1.00
2023-02-26T15:09:07.162Z,1.00
2023-02-26T15:11:55.930Z,1.00
2023-02-26T15:15:01.833Z,1.40
2023-02-26T15:18:37.027Z,1.10
2023-02-26T15:21:29.189Z,1.30
2023-02-26T15:23:58.146Z,1.00
2023-02-26T15:26:34.973Z,1.00
2023-02-26T15:29:07.110Z,1.10
2023-02-26T15:31:53.001Z,0.67
2023-02-26T15:34:21.329Z,1.00
2023-02-26T15:36:53.389Z,1.20
2023-02-26T15:39:23.566Z,1.07
2023-02-26T15:41:53.721Z,0.97
2023-02-26T15:44:28.735Z,1.77
2023-02-26T15:47:02.077Z,0.97
2023-02-26T15:49:43.534Z,0.90
2023-02-26T15:52:17.387Z,0.87
2023-02-26T15:54:50.727Z,1.00
2023-02-26T15:57:19.822Z,1.30
2023-02-26T15:59:50.932Z,1.37
2023-02-26T16:02:29.353Z,1.00
2023-02-26T16:04:56.279Z,1.20
2023-02-26T16:07:23.669Z,0.80
2023-02-26T16:09:54.250Z,1.10
2023-02-26T16:12:43.676Z,1.10
2023-02-26T16:15:25.961Z,1.00
2023-02-26T16:17:55.356Z,1.13
2023-02-26T16:20:27.278Z,1.23
2023-02-26T16:23:03.922Z,0.93
2023-02-26T16:25:51.711Z,0.90
2023-02-26T16:28:49.300Z,0.80
2023-02-26T16:31:25.334Z,0.80
2023-02-26T16:34:04.187Z,0.80
2023-02-26T16:36:41.439Z,1.10
2023-02-26T16:39:08.131Z,1.17
2023-02-26T16:41:40.616Z,1.00
2023-02-26T16:44:30.224Z,0.90
2023-02-26T16:46:59.166Z,1.00
2023-02-26T16:49:32.097Z,0.83
2023-02-26T16:52:00.260Z,1.10
2023-02-26T16:54:32.195Z,0.90
2023-02-26T16:57:05.570Z,0.90
2023-02-26T16:59:38.391Z,1.10
2023-02-26T17:02:26.218Z,0.97
2023-02-26T17:04:59.695Z,0.80
2023-02-26T17:07:31.809Z,1.00
2023-02-26T17:10:19.409Z,1.10
2023-02-26T17:12:50.707Z,0.90
2023-02-26T17:15:41.668Z,1.10
2023-02-26T17:18:08.534Z,1.30
2023-02-26T17:20:37.448Z,0.90
2023-02-26T17:23:08.784Z,1.00
2023-02-26T17:25:50.212Z,1.67
2023-02-26T17:28:24.187Z,1.10
2023-02-26T17:30:52.427Z,1.20
2023-02-26T17:33:19.878Z,1.23
2023-02-26T17:35:47.527Z,0.90
2023-02-26T17:38:15.956Z,1.10
2023-02-26T17:40:47.517Z,0.83
2023-02-26T17:43:14.388Z,1.33
2023-02-26T17:45:41.405Z,1.60
2023-02-26T17:48:10.344Z,1.10
2023-02-26T17:50:57.796Z,1.20
2023-02-26T17:53:33.268Z,1.20
2023-02-26T17:56:00.300Z,1.20
2023-02-26T17:58:34.366Z,1.30
2023-02-26T18:01:03.916Z,1.30
2023-02-26T18:03:31.124Z,1.90
2023-02-26T18:05:58.360Z,1.40
2023-02-26T18:08:30.149Z,1.20
2023-02-26T18:10:59.214Z,2.13
2023-02-26T18:13:27.112Z,1.27
2023-02-26T18:15:56.517Z,1.70
2023-02-26T18:18:24.829Z,1.60
2023-02-26T18:20:52.984Z,1.33
2023-02-26T18:23:19.748Z,1.20
2023-02-26T18:25:49.176Z,1.53
2023-02-26T18:28:24.234Z,1.20
2023-02-26T18:30:52.361Z,1.77
2023-02-26T18:33:20.647Z,1.30
2023-02-26T18:35:57.113Z,1.60
2023-02-26T18:38:27.833Z,1.43
2023-02-26T18:40:55.544Z,1.20
2023-02-26T18:43:22.602Z,1.53
2023-02-26T18:45:52.124Z,1.57
2023-02-26T18:48:21.361Z,1.53
2023-02-26T18:50:49.369Z,1.40
2023-02-26T18:53:17.576Z,1.53
2023-02-26T18:55:44.925Z,1.70
2023-02-26T18:58:11.763Z,1.37
2023-02-26T19:00:38.564Z,1.20
2023-02-26T19:03:05.326Z,1.60
2023-02-26T19:05:32.143Z,1.47
2023-02-26T19:07:59.683Z,1.20
2023-02-26T19:10:29.386Z,1.90
2023-02-26T19:12:56.333Z,1.60
2023-02-26T19:15:24.643Z,1.57
2023-02-26T19:17:51.646Z,2.23
2023-02-26T19:20:18.971Z,1.90
2023-02-26T19:22:47.211Z,1.57
2023-02-26T20:07:55.659Z,2.30
2023-02-26T20:11:15.794Z,1.70
2023-02-26T20:43:18.952Z,2.40
2023-02-26T20:45:46.192Z,2.13
2023-02-26T20:48:13.265Z,2.70
2023-02-26T20:50:40.444Z,2.20
2023-02-26T20:53:08.167Z,2.50
2023-02-26T20:55:35.658Z,2.27
2023-02-26T20:58:03.789Z,2.20
2023-02-26T21:00:31.752Z,2.77
2023-02-26T21:02:58.780Z,2.50
2023-02-26T21:05:25.620Z,2.10
2023-02-26T21:07:52.650Z,1.97
2023-02-26T21:10:20.246Z,2.33
2023-02-26T21:12:47.521Z,2.50
2023-02-26T21:15:14.893Z,2.30
2023-02-26T21:17:43.545Z,2.30
2023-02-26T21:20:13.256Z,2.47
2023-02-26T21:22:40.208Z,2.60
2023-02-26T21:25:08.485Z,2.23
2023-02-26T21:27:35.853Z,3.67
2023-02-26T21:30:06.004Z,4.50
2023-02-26T21:32:33.520Z,4.60
2023-02-26T21:35:00.447Z,2.67
2023-02-26T21:37:29.265Z,2.27
2023-02-26T21:39:56.372Z,2.47
2023-02-26T21:42:23.638Z,2.13
2023-02-26T21:44:50.480Z,6.07
2023-02-26T21:47:17.689Z,7.57
2023-02-26T21:49:44.884Z,3.20
2023-02-26T21:52:12.665Z,2.43
2023-02-26T21:54:40.071Z,2.27
2023-02-26T21:57:07.242Z,2.23
2023-02-26T21:59:35.016Z,2.30
2023-02-26T22:02:03.072Z,2.30
2023-02-26T22:04:30.739Z,3.07
2023-02-26T22:06:57.538Z,2.80
2023-02-26T22:09:24.255Z,2.00
2023-02-26T22:11:51.049Z,2.10
2023-02-26T22:14:18.486Z,3.03
2023-02-26T22:16:45.368Z,3.00
2023-02-26T22:19:12.562Z,3.50
2023-02-26T22:21:39.391Z,3.17
2023-02-26T22:24:06.917Z,3.03
2023-02-26T22:26:34.090Z,3.07
2023-02-26T22:29:01.006Z,2.70
2023-02-26T22:31:29.759Z,2.50
2023-02-26T22:33:57.422Z,2.73
2023-02-26T22:36:25.223Z,3.13
2023-02-26T22:38:52.062Z,2.47
2023-02-26T22:41:19.023Z,3.00
2023-02-26T22:43:45.887Z,3.30
2023-02-26T22:46:12.761Z,2.87
2023-02-26T22:48:39.603Z,2.40
2023-02-26T22:51:06.402Z,2.93
2023-02-26T22:53:33.246Z,2.60
2023-02-26T22:56:06.952Z,2.33
2023-02-26T22:58:34.314Z,2.50
2023-02-26T23:01:03.437Z,2.93
2023-02-26T23:03:30.994Z,2.30
2023-02-26T23:05:58.678Z,2.57
2023-02-26T23:08:26.552Z,2.30
2023-02-26T23:10:59.820Z,2.93
2023-02-26T23:13:30.634Z,2.73
2023-02-26T23:15:58.252Z,2.63
2023-02-26T23:18:25.516Z,3.33
2023-02-26T23:20:52.407Z,2.50
2023-02-26T23:23:19.271Z,3.13
2023-02-26T23:25:47.165Z,2.83
2023-02-26T23:28:14.246Z,2.57
2023-02-26T23:30:41.295Z,2.67
2023-02-26T23:33:08.319Z,2.67
2023-02-26T23:35:35.460Z,2.67
2023-02-26T23:38:03.425Z,2.53
2023-02-26T23:40:30.863Z,2.70
2023-02-26T23:42:57.881Z,3.03
2023-02-26T23:45:25.333Z,3.10
2023-02-26T23:47:52.169Z,2.60
2023-02-26T23:50:22.284Z,2.33
2023-02-26T23:52:49.487Z,2.90
2023-02-26T23:55:16.440Z,2.23
2023-02-26T23:57:44.430Z,2.47
